METAR ET TAF INFORMATION
METAR FOR KDLO
ADDS - METARS form results

(1936 UTC 19 March 2019)
Data provider http://aviationweather.gov/metar/data/
 
METAR text: KDLO 191915Z AUTO 34006KT 10SM CLR 21/03 A2990 RMK AO2 T02070030
Conditions at: KDLO (DELANO , CA, US) observed 1915 UTC 19 March 2019
Temperature: 20.7°C (69°F)
Dewpoint: 3.0°C (37°F) [RH = 31%]
Pressure (altimeter): 29.90 inches Hg (1012.6 mb)
Winds: from the NNW (340 degrees) at 7 MPH (6 knots; 3.1 m/s)
Visibility: 10 or more miles (16+ km)
Ceiling: at least 12,000 feet AGL
Clouds: sky clear below 12,000 feet AGL
Weather: automated observation with no human augmentation;
there may or may not be significant weather present at this time

METAR text: KDLO 191855Z AUTO 33003KT 10SM CLR 20/03 A2990 RMK AO2 T02000033
Conditions at: KDLO (DELANO , CA, US) observed 1855 UTC 19 March 2019
Temperature: 20.0°C (68°F)
Dewpoint: 3.3°C (38°F) [RH = 33%]
Pressure (altimeter): 29.90 inches Hg (1012.6 mb)
Winds: from the NNW (330 degrees) at 3 MPH (3 knots; 1.5 m/s)
Visibility: 10 or more miles (16+ km)
Ceiling: at least 12,000 feet AGL
Clouds: sky clear below 12,000 feet AGL
Weather: automated observation with no human augmentation;
there may or may not be significant weather present at this time

 AÉROPORT DE AÉROPORT

 INFORMATIONS DE PISTE
Piste 14 Longueur de la piste 5650 ft Largeur de la piste 75 ft
Élévation de la piste 313 ft Seuil de la piste déplacés 1640 ft Runway heading 159
Piste 32 Longueur de la piste 5650 ft Largeur de la piste 75 ft
Élévation de la piste 311 ft Seuil de la piste déplacés 0 ft Runway heading 339

 AÉROPORT FRÉQUENCES
Type A/D Nom BAKERSFIEL Féquence 118.9 MHZ
Type AWOS Nom AWOS 3 Féquence 119.55 MHZ
Type UNIC Nom CTAF/UNICO Féquence 122.8 MHZ

 SIDA DE NAVIGATION



Powered by Virtual Airlines Manager [v2.6.2]